sensor_id;sensor_type;location;lat;lon;timestamp;temperature;humidity
61412;DHT22;47278;49.732;7.690;2022-07-05T00:02:16;13.50;99.90
61412;DHT22;47278;49.732;7.690;2022-07-05T00:04:41;13.40;99.90
61412;DHT22;47278;49.732;7.690;2022-07-05T00:07:07;13.30;99.90
61412;DHT22;47278;49.732;7.690;2022-07-05T00:09:48;13.30;99.90
61412;DHT22;47278;49.732;7.690;2022-07-05T00:12:15;13.30;99.90
61412;DHT22;47278;49.732;7.690;2022-07-05T00:14:41;13.30;99.90
61412;DHT22;47278;49.732;7.690;2022-07-05T00:17:07;13.30;99.90
61412;DHT22;47278;49.732;7.690;2022-07-05T00:19:33;13.30;99.90
61412;DHT22;47278;49.732;7.690;2022-07-05T00:21:58;13.20;99.90
61412;DHT22;47278;49.732;7.690;2022-07-05T00:24:24;13.20;99.90
61412;DHT22;47278;49.732;7.690;2022-07-05T00:26:50;13.10;99.90
61412;DHT22;47278;49.732;7.690;2022-07-05T00:29:16;13.00;99.90
61412;DHT22;47278;49.732;7.690;2022-07-05T00:31:41;13.10;99.90
61412;DHT22;47278;49.732;7.690;2022-07-05T00:34:07;13.10;99.90
61412;DHT22;47278;49.732;7.690;2022-07-05T00:36:32;13.00;99.90
61412;DHT22;47278;49.732;7.690;2022-07-05T00:38:58;13.00;99.90
61412;DHT22;47278;49.732;7.690;2022-07-05T00:41:23;12.90;99.90
61412;DHT22;47278;49.732;7.690;2022-07-05T00:43:57;12.90;99.90
61412;DHT22;47278;49.732;7.690;2022-07-05T00:46:23;12.80;99.90
61412;DHT22;47278;49.732;7.690;2022-07-05T00:48:49;12.90;99.90
61412;DHT22;47278;49.732;7.690;2022-07-05T00:51:15;12.80;99.90
61412;DHT22;47278;49.732;7.690;2022-07-05T00:53:41;12.90;99.90
61412;DHT22;47278;49.732;7.690;2022-07-05T00:56:09;12.80;99.90
61412;DHT22;47278;49.732;7.690;2022-07-05T00:58:35;11.30;99.90
61412;DHT22;47278;49.732;7.690;2022-07-05T01:01:02;12.50;99.90
61412;DHT22;47278;49.732;7.690;2022-07-05T01:03:27;12.60;99.90
61412;DHT22;47278;49.732;7.690;2022-07-05T01:05:53;12.60;99.90
61412;DHT22;47278;49.732;7.690;2022-07-05T01:08:19;12.50;99.90
61412;DHT22;47278;49.732;7.690;2022-07-05T01:10:45;12.50;99.90
61412;DHT22;47278;49.732;7.690;2022-07-05T01:13:10;12.50;99.90
61412;DHT22;47278;49.732;7.690;2022-07-05T01:15:36;12.50;99.90
61412;DHT22;47278;49.732;7.690;2022-07-05T01:18:02;12.40;99.90
61412;DHT22;47278;49.732;7.690;2022-07-05T01:20:27;12.30;99.90
61412;DHT22;47278;49.732;7.690;2022-07-05T01:22:54;12.30;99.90
61412;DHT22;47278;49.732;7.690;2022-07-05T01:25:23;12.30;99.90
61412;DHT22;47278;49.732;7.690;2022-07-05T01:27:49;12.30;99.90
61412;DHT22;47278;49.732;7.690;2022-07-05T01:30:16;12.20;99.90
61412;DHT22;47278;49.732;7.690;2022-07-05T01:32:41;12.20;99.90
61412;DHT22;47278;49.732;7.690;2022-07-05T01:35:07;12.20;99.90
61412;DHT22;47278;49.732;7.690;2022-07-05T01:37:33;12.20;99.90
61412;DHT22;47278;49.732;7.690;2022-07-05T01:40:00;12.10;99.90
61412;DHT22;47278;49.732;7.690;2022-07-05T01:42:26;12.10;99.90
61412;DHT22;47278;49.732;7.690;2022-07-05T01:44:52;12.10;99.90
61412;DHT22;47278;49.732;7.690;2022-07-05T01:47:17;12.00;99.90
61412;DHT22;47278;49.732;7.690;2022-07-05T01:49:44;11.90;99.90
61412;DHT22;47278;49.732;7.690;2022-07-05T01:52:11;11.90;99.90
61412;DHT22;47278;49.732;7.690;2022-07-05T01:54:38;11.90;99.90
61412;DHT22;47278;49.732;7.690;2022-07-05T01:57:04;11.80;99.90
61412;DHT22;47278;49.732;7.690;2022-07-05T01:59:31;11.80;99.90
61412;DHT22;47278;49.732;7.690;2022-07-05T02:01:57;11.80;99.90
61412;DHT22;47278;49.732;7.690;2022-07-05T02:04:22;11.70;99.90
61412;DHT22;47278;49.732;7.690;2022-07-05T02:06:48;11.70;99.90
61412;DHT22;47278;49.732;7.690;2022-07-05T02:09:14;11.70;99.90
61412;DHT22;47278;49.732;7.690;2022-07-05T02:11:39;11.70;99.90
61412;DHT22;47278;49.732;7.690;2022-07-05T02:14:05;11.70;99.90
61412;DHT22;47278;49.732;7.690;2022-07-05T02:16:31;11.80;99.90
61412;DHT22;47278;49.732;7.690;2022-07-05T02:18:57;11.70;99.90
61412;DHT22;47278;49.732;7.690;2022-07-05T02:21:22;11.60;99.90
61412;DHT22;47278;49.732;7.690;2022-07-05T02:23:48;11.50;99.90
61412;DHT22;47278;49.732;7.690;2022-07-05T02:26:14;11.50;99.90
61412;DHT22;47278;49.732;7.690;2022-07-05T02:28:39;11.50;99.90
61412;DHT22;47278;49.732;7.690;2022-07-05T02:31:05;11.50;99.90
61412;DHT22;47278;49.732;7.690;2022-07-05T02:33:30;11.40;99.90
61412;DHT22;47278;49.732;7.690;2022-07-05T02:35:56;11.40;99.90
61412;DHT22;47278;49.732;7.690;2022-07-05T02:38:21;11.50;99.90
61412;DHT22;47278;49.732;7.690;2022-07-05T02:40:48;11.50;99.90
61412;DHT22;47278;49.732;7.690;2022-07-05T02:43:13;11.40;99.90
61412;DHT22;47278;49.732;7.690;2022-07-05T02:45:39;11.20;99.90
61412;DHT22;47278;49.732;7.690;2022-07-05T02:48:04;11.30;99.90
61412;DHT22;47278;49.732;7.690;2022-07-05T02:50:30;11.30;99.90
61412;DHT22;47278;49.732;7.690;2022-07-05T02:52:56;11.30;99.90
61412;DHT22;47278;49.732;7.690;2022-07-05T02:55:21;11.30;99.90
61412;DHT22;47278;49.732;7.690;2022-07-05T02:57:47;11.30;99.90
61412;DHT22;47278;49.732;7.690;2022-07-05T03:00:13;11.20;99.90
61412;DHT22;47278;49.732;7.690;2022-07-05T03:02:38;11.20;99.90
61412;DHT22;47278;49.732;7.690;2022-07-05T03:05:04;11.20;99.90
61412;DHT22;47278;49.732;7.690;2022-07-05T03:07:30;11.10;99.90
61412;DHT22;47278;49.732;7.690;2022-07-05T03:09:55;11.10;99.90
61412;DHT22;47278;49.732;7.690;2022-07-05T03:12:21;11.10;99.90
61412;DHT22;47278;49.732;7.690;2022-07-05T03:14:46;11.20;99.90
61412;DHT22;47278;49.732;7.690;2022-07-05T03:17:12;11.20;99.90
61412;DHT22;47278;49.732;7.690;2022-07-05T03:19:37;11.10;99.90
61412;DHT22;47278;49.732;7.690;2022-07-05T03:22:03;11.10;99.90
61412;DHT22;47278;49.732;7.690;2022-07-05T03:24:28;11.00;99.90
61412;DHT22;47278;49.732;7.690;2022-07-05T03:26:54;11.10;99.90
61412;DHT22;47278;49.732;7.690;2022-07-05T03:29:20;11.00;99.90
61412;DHT22;47278;49.732;7.690;2022-07-05T03:31:45;10.90;99.90
61412;DHT22;47278;49.732;7.690;2022-07-05T03:34:11;11.00;99.90
61412;DHT22;47278;49.732;7.690;2022-07-05T03:36:36;11.00;99.90
61412;DHT22;47278;49.732;7.690;2022-07-05T03:39:02;11.00;99.90
61412;DHT22;47278;49.732;7.690;2022-07-05T03:41:28;10.90;99.90
61412;DHT22;47278;49.732;7.690;2022-07-05T03:43:53;10.90;99.90
61412;DHT22;47278;49.732;7.690;2022-07-05T03:46:19;10.90;99.90
61412;DHT22;47278;49.732;7.690;2022-07-05T03:48:44;11.00;99.90
61412;DHT22;47278;49.732;7.690;2022-07-05T03:51:10;11.00;99.90
61412;DHT22;47278;49.732;7.690;2022-07-05T03:53:35;11.00;99.90
61412;DHT22;47278;49.732;7.690;2022-07-05T03:56:01;11.00;99.90
61412;DHT22;47278;49.732;7.690;2022-07-05T03:58:26;11.00;99.90
61412;DHT22;47278;49.732;7.690;2022-07-05T04:00:52;11.10;99.90
61412;DHT22;47278;49.732;7.690;2022-07-05T04:03:17;11.10;99.90
61412;DHT22;47278;49.732;7.690;2022-07-05T04:05:43;11.00;99.90
61412;DHT22;47278;49.732;7.690;2022-07-05T04:08:09;10.90;99.90
61412;DHT22;47278;49.732;7.690;2022-07-05T04:10:34;11.00;99.90
61412;DHT22;47278;49.732;7.690;2022-07-05T04:13:00;11.00;99.90
61412;DHT22;47278;49.732;7.690;2022-07-05T04:15:25;11.00;99.90
61412;DHT22;47278;49.732;7.690;2022-07-05T04:17:54;11.10;99.90
61412;DHT22;47278;49.732;7.690;2022-07-05T04:20:21;11.10;99.90
61412;DHT22;47278;49.732;7.690;2022-07-05T04:22:47;11.10;99.90
61412;DHT22;47278;49.732;7.690;2022-07-05T04:25:13;11.10;99.90
61412;DHT22;47278;49.732;7.690;2022-07-05T04:27:48;11.20;99.90
61412;DHT22;47278;49.732;7.690;2022-07-05T04:30:14;14.00;99.90
61412;DHT22;47278;49.732;7.690;2022-07-05T04:32:40;11.20;99.90
61412;DHT22;47278;49.732;7.690;2022-07-05T04:35:06;11.20;99.90
61412;DHT22;47278;49.732;7.690;2022-07-05T04:37:31;11.20;99.90
61412;DHT22;47278;49.732;7.690;2022-07-05T04:39:57;11.30;99.90
61412;DHT22;47278;49.732;7.690;2022-07-05T04:42:22;11.40;99.90
61412;DHT22;47278;49.732;7.690;2022-07-05T04:44:48;11.40;99.90
61412;DHT22;47278;49.732;7.690;2022-07-05T04:47:14;11.50;99.90
61412;DHT22;47278;49.732;7.690;2022-07-05T04:49:39;11.50;99.90
61412;DHT22;47278;49.732;7.690;2022-07-05T04:52:05;11.50;99.90
61412;DHT22;47278;49.732;7.690;2022-07-05T04:54:31;11.50;99.90
61412;DHT22;47278;49.732;7.690;2022-07-05T04:56:57;11.60;99.90
61412;DHT22;47278;49.732;7.690;2022-07-05T04:59:22;11.60;99.90
61412;DHT22;47278;49.732;7.690;2022-07-05T05:01:48;11.60;99.90
61412;DHT22;47278;49.732;7.690;2022-07-05T05:04:14;11.70;99.90
61412;DHT22;47278;49.732;7.690;2022-07-05T05:06:39;11.80;99.90
61412;DHT22;47278;49.732;7.690;2022-07-05T05:09:05;11.90;99.90
61412;DHT22;47278;49.732;7.690;2022-07-05T05:11:30;11.90;99.90
61412;DHT22;47278;49.732;7.690;2022-07-05T05:13:56;11.90;99.90
61412;DHT22;47278;49.732;7.690;2022-07-05T05:16:21;12.00;99.90
61412;DHT22;47278;49.732;7.690;2022-07-05T05:18:47;12.10;99.90
61412;DHT22;47278;49.732;7.690;2022-07-05T05:21:12;12.20;99.90
61412;DHT22;47278;49.732;7.690;2022-07-05T05:23:38;12.30;99.90
61412;DHT22;47278;49.732;7.690;2022-07-05T05:26:03;12.30;99.90
61412;DHT22;47278;49.732;7.690;2022-07-05T05:28:29;12.40;99.90
61412;DHT22;47278;49.732;7.690;2022-07-05T05:30:54;12.60;99.90
61412;DHT22;47278;49.732;7.690;2022-07-05T05:33:20;12.60;99.90
61412;DHT22;47278;49.732;7.690;2022-07-05T05:35:46;12.70;99.90
61412;DHT22;47278;49.732;7.690;2022-07-05T05:38:11;12.90;99.90
61412;DHT22;47278;49.732;7.690;2022-07-05T05:40:37;13.00;99.90
61412;DHT22;47278;49.732;7.690;2022-07-05T05:43:07;13.20;99.90
61412;DHT22;47278;49.732;7.690;2022-07-05T05:45:33;13.20;99.90
61412;DHT22;47278;49.732;7.690;2022-07-05T05:47:58;13.20;99.90
61412;DHT22;47278;49.732;7.690;2022-07-05T05:50:28;13.40;99.90
61412;DHT22;47278;49.732;7.690;2022-07-05T05:52:55;13.50;99.90
61412;DHT22;47278;49.732;7.690;2022-07-05T05:55:21;13.60;99.90
61412;DHT22;47278;49.732;7.690;2022-07-05T05:57:47;13.70;99.90
61412;DHT22;47278;49.732;7.690;2022-07-05T06:00:13;13.70;99.90
61412;DHT22;47278;49.732;7.690;2022-07-05T06:02:40;13.80;99.90
61412;DHT22;47278;49.732;7.690;2022-07-05T06:05:06;13.80;99.90
61412;DHT22;47278;49.732;7.690;2022-07-05T06:07:42;13.90;99.90
61412;DHT22;47278;49.732;7.690;2022-07-05T06:10:08;14.00;99.90
61412;DHT22;47278;49.732;7.690;2022-07-05T06:12:34;14.20;99.90
61412;DHT22;47278;49.732;7.690;2022-07-05T06:14:59;14.30;99.90
61412;DHT22;47278;49.732;7.690;2022-07-05T06:17:25;14.30;99.90
61412;DHT22;47278;49.732;7.690;2022-07-05T06:19:50;14.50;99.90
61412;DHT22;47278;49.732;7.690;2022-07-05T06:22:16;14.50;99.90
61412;DHT22;47278;49.732;7.690;2022-07-05T06:24:41;14.50;99.90
61412;DHT22;47278;49.732;7.690;2022-07-05T06:27:07;14.60;99.90
61412;DHT22;47278;49.732;7.690;2022-07-05T06:29:32;14.70;99.90
61412;DHT22;47278;49.732;7.690;2022-07-05T06:31:58;14.70;99.90
61412;DHT22;47278;49.732;7.690;2022-07-05T06:34:25;14.70;99.90
61412;DHT22;47278;49.732;7.690;2022-07-05T06:36:50;14.90;99.90
61412;DHT22;47278;49.732;7.690;2022-07-05T06:39:16;15.10;99.90
61412;DHT22;47278;49.732;7.690;2022-07-05T06:41:41;15.20;99.90
61412;DHT22;47278;49.732;7.690;2022-07-05T06:44:07;15.30;99.90
61412;DHT22;47278;49.732;7.690;2022-07-05T06:46:32;15.30;99.90
61412;DHT22;47278;49.732;7.690;2022-07-05T06:48:58;15.50;99.90
61412;DHT22;47278;49.732;7.690;2022-07-05T06:51:23;15.70;99.90
61412;DHT22;47278;49.732;7.690;2022-07-05T06:53:49;15.80;99.90
61412;DHT22;47278;49.732;7.690;2022-07-05T06:56:14;15.80;99.90
61412;DHT22;47278;49.732;7.690;2022-07-05T06:58:40;15.90;99.90
61412;DHT22;47278;49.732;7.690;2022-07-05T07:01:06;16.10;99.90
61412;DHT22;47278;49.732;7.690;2022-07-05T07:03:31;16.30;99.90
61412;DHT22;47278;49.732;7.690;2022-07-05T07:05:57;16.50;99.90
61412;DHT22;47278;49.732;7.690;2022-07-05T07:08:24;16.80;99.90
61412;DHT22;47278;49.732;7.690;2022-07-05T07:11:08;16.90;99.90
61412;DHT22;47278;49.732;7.690;2022-07-05T07:13:33;17.10;99.90
61412;DHT22;47278;49.732;7.690;2022-07-05T07:16:01;17.20;99.90
61412;DHT22;47278;49.732;7.690;2022-07-05T07:18:26;17.30;99.90
61412;DHT22;47278;49.732;7.690;2022-07-05T07:20:52;17.40;99.90
61412;DHT22;47278;49.732;7.690;2022-07-05T07:23:18;17.60;99.90
61412;DHT22;47278;49.732;7.690;2022-07-05T07:25:44;17.80;99.90
61412;DHT22;47278;49.732;7.690;2022-07-05T07:28:10;18.00;99.90
61412;DHT22;47278;49.732;7.690;2022-07-05T07:30:35;18.20;99.90
61412;DHT22;47278;49.732;7.690;2022-07-05T07:33:01;18.40;99.90
61412;DHT22;47278;49.732;7.690;2022-07-05T07:35:26;18.60;99.90
61412;DHT22;47278;49.732;7.690;2022-07-05T07:37:52;18.70;99.90
61412;DHT22;47278;49.732;7.690;2022-07-05T07:40:17;18.80;99.90
61412;DHT22;47278;49.732;7.690;2022-07-05T07:42:43;18.90;99.90
61412;DHT22;47278;49.732;7.690;2022-07-05T07:45:11;19.10;99.90
61412;DHT22;47278;49.732;7.690;2022-07-05T07:47:37;19.20;99.90
61412;DHT22;47278;49.732;7.690;2022-07-05T07:50:03;19.40;99.90
61412;DHT22;47278;49.732;7.690;2022-07-05T07:52:29;20.00;99.90
61412;DHT22;47278;49.732;7.690;2022-07-05T07:55:03;19.90;99.90
61412;DHT22;47278;49.732;7.690;2022-07-05T07:57:29;20.20;99.90
61412;DHT22;47278;49.732;7.690;2022-07-05T07:59:54;20.40;99.90
61412;DHT22;47278;49.732;7.690;2022-07-05T08:02:20;20.60;99.90
61412;DHT22;47278;49.732;7.690;2022-07-05T08:04:48;20.70;99.90
61412;DHT22;47278;49.732;7.690;2022-07-05T08:07:14;20.90;99.90
61412;DHT22;47278;49.732;7.690;2022-07-05T08:09:40;20.90;99.90
61412;DHT22;47278;49.732;7.690;2022-07-05T08:12:05;21.10;99.90
61412;DHT22;47278;49.732;7.690;2022-07-05T08:14:31;21.50;99.90
61412;DHT22;47278;49.732;7.690;2022-07-05T08:16:57;21.70;99.90
61412;DHT22;47278;49.732;7.690;2022-07-05T08:19:23;21.90;99.90
61412;DHT22;47278;49.732;7.690;2022-07-05T08:22:07;22.00;99.90
61412;DHT22;47278;49.732;7.690;2022-07-05T08:24:38;22.00;99.90
61412;DHT22;47278;49.732;7.690;2022-07-05T08:27:05;22.00;99.90
61412;DHT22;47278;49.732;7.690;2022-07-05T08:29:32;22.20;99.90
61412;DHT22;47278;49.732;7.690;2022-07-05T08:31:58;22.20;99.90
61412;DHT22;47278;49.732;7.690;2022-07-05T08:34:23;22.20;99.90
61412;DHT22;47278;49.732;7.690;2022-07-05T08:36:49;22.10;99.90
61412;DHT22;47278;49.732;7.690;2022-07-05T08:39:14;22.10;99.90
61412;DHT22;47278;49.732;7.690;2022-07-05T08:41:41;22.20;99.90
61412;DHT22;47278;49.732;7.690;2022-07-05T08:44:07;22.10;99.90
61412;DHT22;47278;49.732;7.690;2022-07-05T08:46:34;21.90;99.90
61412;DHT22;47278;49.732;7.690;2022-07-05T08:49:03;22.10;99.90
61412;DHT22;47278;49.732;7.690;2022-07-05T08:51:33;22.50;99.90
61412;DHT22;47278;49.732;7.690;2022-07-05T08:53:59;22.70;99.90
61412;DHT22;47278;49.732;7.690;2022-07-05T08:56:25;23.00;99.90
61412;DHT22;47278;49.732;7.690;2022-07-05T08:58:50;23.20;99.90
61412;DHT22;47278;49.732;7.690;2022-07-05T09:01:16;23.50;99.90
61412;DHT22;47278;49.732;7.690;2022-07-05T09:03:51;23.70;99.90
61412;DHT22;47278;49.732;7.690;2022-07-05T09:06:20;23.70;99.90
61412;DHT22;47278;49.732;7.690;2022-07-05T09:08:47;24.00;99.90
61412;DHT22;47278;49.732;7.690;2022-07-05T09:11:15;24.20;99.90
61412;DHT22;47278;49.732;7.690;2022-07-05T09:13:41;24.40;99.90
61412;DHT22;47278;49.732;7.690;2022-07-05T09:16:07;24.30;99.90
61412;DHT22;47278;49.732;7.690;2022-07-05T09:18:46;24.40;99.90
61412;DHT22;47278;49.732;7.690;2022-07-05T09:21:15;24.60;99.90
61412;DHT22;47278;49.732;7.690;2022-07-05T09:23:42;24.80;99.90
61412;DHT22;47278;49.732;7.690;2022-07-05T09:26:08;24.90;99.90
61412;DHT22;47278;49.732;7.690;2022-07-05T09:28:33;24.80;99.90
61412;DHT22;47278;49.732;7.690;2022-07-05T09:30:59;24.80;99.90
61412;DHT22;47278;49.732;7.690;2022-07-05T09:33:24;24.60;99.90
61412;DHT22;47278;49.732;7.690;2022-07-05T09:35:51;24.20;99.90
61412;DHT22;47278;49.732;7.690;2022-07-05T09:38:22;24.10;99.90
61412;DHT22;47278;49.732;7.690;2022-07-05T09:43:15;24.60;99.90
61412;DHT22;47278;49.732;7.690;2022-07-05T09:48:19;25.30;99.90
61412;DHT22;47278;49.732;7.690;2022-07-05T09:50:45;25.30;99.90
61412;DHT22;47278;49.732;7.690;2022-07-05T09:53:10;25.50;99.90
61412;DHT22;47278;49.732;7.690;2022-07-05T09:55:39;25.80;99.90
61412;DHT22;47278;49.732;7.690;2022-07-05T09:58:05;25.00;99.90
61412;DHT22;47278;49.732;7.690;2022-07-05T10:00:31;25.20;99.90
61412;DHT22;47278;49.732;7.690;2022-07-05T10:02:57;25.40;99.90
61412;DHT22;47278;49.732;7.690;2022-07-05T10:05:32;24.90;99.90
61412;DHT22;47278;49.732;7.690;2022-07-05T10:07:58;24.90;99.90
61412;DHT22;47278;49.732;7.690;2022-07-05T10:10:28;25.60;99.90
61412;DHT22;47278;49.732;7.690;2022-07-05T10:12:55;25.50;99.90
61412;DHT22;47278;49.732;7.690;2022-07-05T10:15:22;25.70;99.90
61412;DHT22;47278;49.732;7.690;2022-07-05T10:20:24;25.90;99.90
61412;DHT22;47278;49.732;7.690;2022-07-05T10:22:51;25.90;99.90
61412;DHT22;47278;49.732;7.690;2022-07-05T10:25:16;26.10;99.90
61412;DHT22;47278;49.732;7.690;2022-07-05T10:27:42;26.30;99.90
61412;DHT22;47278;49.732;7.690;2022-07-05T10:30:08;25.70;99.90
61412;DHT22;47278;49.732;7.690;2022-07-05T10:32:34;25.60;99.90
61412;DHT22;47278;49.732;7.690;2022-07-05T10:35:00;25.60;99.90
61412;DHT22;47278;49.732;7.690;2022-07-05T10:37:29;25.70;99.90
61412;DHT22;47278;49.732;7.690;2022-07-05T10:39:56;25.60;99.90
61412;DHT22;47278;49.732;7.690;2022-07-05T10:42:23;26.10;99.90
61412;DHT22;47278;49.732;7.690;2022-07-05T10:44:49;26.40;99.90
61412;DHT22;47278;49.732;7.690;2022-07-05T10:47:15;26.10;99.90
61412;DHT22;47278;49.732;7.690;2022-07-05T10:49:42;26.10;99.90
61412;DHT22;47278;49.732;7.690;2022-07-05T10:52:21;26.10;99.40
61412;DHT22;47278;49.732;7.690;2022-07-05T10:57:33;26.40;99.90
61412;DHT22;47278;49.732;7.690;2022-07-05T11:00:06;26.80;98.10
61412;DHT22;47278;49.732;7.690;2022-07-05T11:02:31;26.40;97.20
61412;DHT22;47278;49.732;7.690;2022-07-05T11:04:57;26.90;99.50
61412;DHT22;47278;49.732;7.690;2022-07-05T11:10:07;26.20;98.50
61412;DHT22;47278;49.732;7.690;2022-07-05T11:12:36;26.20;97.00
61412;DHT22;47278;49.732;7.690;2022-07-05T11:15:05;26.30;96.40
61412;DHT22;47278;49.732;7.690;2022-07-05T11:17:32;26.70;99.40
61412;DHT22;47278;49.732;7.690;2022-07-05T11:20:00;27.10;99.90
61412;DHT22;47278;49.732;7.690;2022-07-05T11:22:26;26.30;98.50
61412;DHT22;47278;49.732;7.690;2022-07-05T11:24:52;26.00;99.60
61412;DHT22;47278;49.732;7.690;2022-07-05T11:27:18;25.70;98.30
61412;DHT22;47278;49.732;7.690;2022-07-05T11:32:10;26.10;98.10
61412;DHT22;47278;49.732;7.690;2022-07-05T11:34:37;26.40;95.50
61412;DHT22;47278;49.732;7.690;2022-07-05T11:37:56;26.70;96.90
61412;DHT22;47278;49.732;7.690;2022-07-05T11:42:32;26.50;95.60
61412;DHT22;47278;49.732;7.690;2022-07-05T11:45:06;26.50;97.00
61412;DHT22;47278;49.732;7.690;2022-07-05T11:47:33;26.50;94.90
61412;DHT22;47278;49.732;7.690;2022-07-05T11:49:59;26.40;97.40
61412;DHT22;47278;49.732;7.690;2022-07-05T11:52:25;27.10;95.00
61412;DHT22;47278;49.732;7.690;2022-07-05T11:54:51;27.40;97.90
61412;DHT22;47278;49.732;7.690;2022-07-05T11:57:17;26.50;93.30
61412;DHT22;47278;49.732;7.690;2022-07-05T11:59:43;26.50;95.70
61412;DHT22;47278;49.732;7.690;2022-07-05T12:02:08;26.30;96.30
61412;DHT22;47278;49.732;7.690;2022-07-05T12:04:34;26.50;94.60
61412;DHT22;47278;49.732;7.690;2022-07-05T12:06:59;27.30;95.40
61412;DHT22;47278;49.732;7.690;2022-07-05T12:09:29;27.80;92.70
61412;DHT22;47278;49.732;7.690;2022-07-05T12:12:17;27.80;92.30
61412;DHT22;47278;49.732;7.690;2022-07-05T12:15:01;28.00;94.00
61412;DHT22;47278;49.732;7.690;2022-07-05T12:17:26;28.00;95.70
61412;DHT22;47278;49.732;7.690;2022-07-05T12:19:52;27.80;94.10
61412;DHT22;47278;49.732;7.690;2022-07-05T12:22:27;28.20;96.00
61412;DHT22;47278;49.732;7.690;2022-07-05T12:24:52;28.40;96.90
61412;DHT22;47278;49.732;7.690;2022-07-05T12:27:18;28.20;90.70
61412;DHT22;47278;49.732;7.690;2022-07-05T12:29:43;28.40;90.70
61412;DHT22;47278;49.732;7.690;2022-07-05T12:32:09;28.10;84.10
61412;DHT22;47278;49.732;7.690;2022-07-05T12:34:36;28.10;85.20
61412;DHT22;47278;49.732;7.690;2022-07-05T12:37:01;28.60;89.70
61412;DHT22;47278;49.732;7.690;2022-07-05T12:39:27;28.50;83.70
61412;DHT22;47278;49.732;7.690;2022-07-05T12:41:53;28.80;83.00
61412;DHT22;47278;49.732;7.690;2022-07-05T12:44:21;28.40;83.00
61412;DHT22;47278;49.732;7.690;2022-07-05T12:46:47;28.40;80.20
61412;DHT22;47278;49.732;7.690;2022-07-05T12:49:14;27.70;82.60
61412;DHT22;47278;49.732;7.690;2022-07-05T12:51:41;27.50;83.10
61412;DHT22;47278;49.732;7.690;2022-07-05T12:54:07;27.30;87.40
61412;DHT22;47278;49.732;7.690;2022-07-05T12:56:52;27.00;88.30
61412;DHT22;47278;49.732;7.690;2022-07-05T12:59:37;27.10;87.60
61412;DHT22;47278;49.732;7.690;2022-07-05T13:02:03;27.80;90.60
61412;DHT22;47278;49.732;7.690;2022-07-05T13:04:29;28.40;90.10
61412;DHT22;47278;49.732;7.690;2022-07-05T13:06:55;28.30;84.90
61412;DHT22;47278;49.732;7.690;2022-07-05T13:11:52;27.10;88.90
61412;DHT22;47278;49.732;7.690;2022-07-05T13:14:29;27.00;84.90
61412;DHT22;47278;49.732;7.690;2022-07-05T13:16:55;27.90;83.50
61412;DHT22;47278;49.732;7.690;2022-07-05T13:19:20;28.40;88.70
61412;DHT22;47278;49.732;7.690;2022-07-05T13:21:46;28.80;91.80
61412;DHT22;47278;49.732;7.690;2022-07-05T13:24:11;29.50;90.40
61412;DHT22;47278;49.732;7.690;2022-07-05T13:26:37;28.90;82.30
61412;DHT22;47278;49.732;7.690;2022-07-05T13:29:02;28.50;83.50
61412;DHT22;47278;49.732;7.690;2022-07-05T13:31:28;28.40;84.00
61412;DHT22;47278;49.732;7.690;2022-07-05T13:33:56;28.60;84.50
61412;DHT22;47278;49.732;7.690;2022-07-05T13:36:22;28.80;80.90
61412;DHT22;47278;49.732;7.690;2022-07-05T13:38:47;29.10;81.70
61412;DHT22;47278;49.732;7.690;2022-07-05T13:41:13;28.40;80.60
61412;DHT22;47278;49.732;7.690;2022-07-05T13:43:38;28.20;85.40
61412;DHT22;47278;49.732;7.690;2022-07-05T13:46:05;28.60;83.60
61412;DHT22;47278;49.732;7.690;2022-07-05T13:48:30;28.60;83.60
61412;DHT22;47278;49.732;7.690;2022-07-05T13:50:56;27.70;83.80
61412;DHT22;47278;49.732;7.690;2022-07-05T13:53:22;27.30;90.10
61412;DHT22;47278;49.732;7.690;2022-07-05T13:55:47;27.20;83.50
61412;DHT22;47278;49.732;7.690;2022-07-05T13:58:13;27.10;83.40
61412;DHT22;47278;49.732;7.690;2022-07-05T14:00:38;27.20;86.40
61412;DHT22;47278;49.732;7.690;2022-07-05T14:03:04;27.60;87.40
61412;DHT22;47278;49.732;7.690;2022-07-05T14:05:29;28.40;88.20
61412;DHT22;47278;49.732;7.690;2022-07-05T14:07:55;28.20;83.50
61412;DHT22;47278;49.732;7.690;2022-07-05T14:10:20;28.60;83.60
61412;DHT22;47278;49.732;7.690;2022-07-05T14:12:46;28.90;86.90
61412;DHT22;47278;49.732;7.690;2022-07-05T14:15:11;29.10;88.20
61412;DHT22;47278;49.732;7.690;2022-07-05T14:17:37;29.20;88.30
61412;DHT22;47278;49.732;7.690;2022-07-05T14:20:03;28.80;81.20
61412;DHT22;47278;49.732;7.690;2022-07-05T14:22:29;29.70;82.30
61412;DHT22;47278;49.732;7.690;2022-07-05T14:24:55;27.50;82.80
61412;DHT22;47278;49.732;7.690;2022-07-05T14:27:20;27.30;84.40
61412;DHT22;47278;49.732;7.690;2022-07-05T14:29:46;28.00;85.40
61412;DHT22;47278;49.732;7.690;2022-07-05T14:32:11;28.80;87.10
61412;DHT22;47278;49.732;7.690;2022-07-05T14:34:37;29.40;89.20
61412;DHT22;47278;49.732;7.690;2022-07-05T14:37:03;29.80;86.50
61412;DHT22;47278;49.732;7.690;2022-07-05T14:39:28;29.40;80.00
61412;DHT22;47278;49.732;7.690;2022-07-05T14:41:54;28.50;82.00
61412;DHT22;47278;49.732;7.690;2022-07-05T14:44:20;28.10;79.00
61412;DHT22;47278;49.732;7.690;2022-07-05T14:46:46;28.40;79.70
61412;DHT22;47278;49.732;7.690;2022-07-05T14:49:11;30.90;79.70
61412;DHT22;47278;49.732;7.690;2022-07-05T14:51:37;28.50;79.00
61412;DHT22;47278;49.732;7.690;2022-07-05T14:54:03;28.10;80.00
61412;DHT22;47278;49.732;7.690;2022-07-05T14:56:28;27.60;78.80
61412;DHT22;47278;49.732;7.690;2022-07-05T14:58:54;26.90;78.40
61412;DHT22;47278;49.732;7.690;2022-07-05T15:01:19;27.30;81.00
61412;DHT22;47278;49.732;7.690;2022-07-05T15:03:45;27.40;79.40
61412;DHT22;47278;49.732;7.690;2022-07-05T15:06:11;27.10;81.20
61412;DHT22;47278;49.732;7.690;2022-07-05T15:08:37;27.20;80.70
61412;DHT22;47278;49.732;7.690;2022-07-05T15:11:02;27.30;82.00
61412;DHT22;47278;49.732;7.690;2022-07-05T15:13:29;27.40;82.90
61412;DHT22;47278;49.732;7.690;2022-07-05T15:15:55;27.00;81.30
61412;DHT22;47278;49.732;7.690;2022-07-05T15:18:22;26.90;79.90
61412;DHT22;47278;49.732;7.690;2022-07-05T15:20:47;26.80;81.60
61412;DHT22;47278;49.732;7.690;2022-07-05T15:23:13;26.70;83.60
61412;DHT22;47278;49.732;7.690;2022-07-05T15:25:39;26.70;80.40
61412;DHT22;47278;49.732;7.690;2022-07-05T15:28:04;26.70;79.10
61412;DHT22;47278;49.732;7.690;2022-07-05T15:30:35;26.70;83.70
61412;DHT22;47278;49.732;7.690;2022-07-05T15:33:01;26.60;81.50
61412;DHT22;47278;49.732;7.690;2022-07-05T15:35:27;26.60;81.90
61412;DHT22;47278;49.732;7.690;2022-07-05T15:37:53;26.70;79.50
61412;DHT22;47278;49.732;7.690;2022-07-05T15:40:18;26.80;83.40
61412;DHT22;47278;49.732;7.690;2022-07-05T15:42:44;26.90;81.20
61412;DHT22;47278;49.732;7.690;2022-07-05T15:45:09;28.30;85.60
61412;DHT22;47278;49.732;7.690;2022-07-05T15:47:35;30.50;79.30